メインページ
METAR-TAF:

METAR-TAF

空港 :

ラルナカ, キプロス

ラルナカ国際空港

緯度: 34-53N, 経度: 033-38E, 海抜: 2m

現時点の気象観測

当レポートは21分前の11:30(UTC)に作成
南西の風 20kt
気温 24°C
湿度 61%
気圧 1015 hPa
視程10km以上
高度2500ftの雲はほとんどない

METAR: LCLK 241130Z 22020KT 9999 FEW025 24/16 Q1015 NOSIG

時間: 14:51 (11:51 UTC)

予報

当レポートは21分前の11:30(UTC)に作成
予報は24日の 12時(UTC)から 25日の 12時(UTC)まで有効
南/南西の風 17kt
視程10km以上
高度4000ftの雲はほとんどない
24日の 16時(UTC)から 24日の 18時(UTC)まで徐々に
北/北西の風 5kt
確率 30%
26日の 02時(UTC)から 26日の 05時(UTC)まで
視程: 5000m
高度1000ftの千切れ雲あり
25日の 07時(UTC)から 25日の 10時(UTC)まで徐々に
南/南西の風 14kt

TAF: LCLK 241130Z 2412/2512 21017KT 9999 FEW040 BECMG 2416/2418 33005KT PROB30 2602/2605 5000 BR BKN010 BECMG 2507/2510 20014KT

4,000以上の空港の気象観測と天気予報(METAR報とTAF報)

利用可能な観測所は地図上に黄色い丸と赤い丸で示す。

丸の上にカーソルを重ねると観測所名を参照できる。

次にクリックすると気象観測と天気予報を参照できる。

マップの切り替え:黒色「×」印の緑ボタンをクリックして拡大、「-」印の緑ボタンをクリックして縮小、緑色の三角印をクリックして隣りの地図に切り替え


METAR-TAF: